createdAt,value
2023-01-20T00:00:42.972Z,947.51
2023-01-20T00:01:44.858Z,947.52
2023-01-20T00:02:46.968Z,947.52
2023-01-20T00:03:48.879Z,947.54
2023-01-20T00:04:50.859Z,947.52
2023-01-20T00:05:52.854Z,947.54
2023-01-20T00:06:54.846Z,947.51
2023-01-20T00:07:56.886Z,947.52
2023-01-20T00:08:58.905Z,947.53
2023-01-20T00:10:00.882Z,947.52
2023-01-20T00:11:02.857Z,947.5
2023-01-20T00:12:04.896Z,947.53
2023-01-20T00:13:06.860Z,947.53
2023-01-20T00:14:08.948Z,947.53
2023-01-20T00:15:11.401Z,947.55
2023-01-20T00:16:16.959Z,947.53
2023-01-20T00:17:19.864Z,947.53
2023-01-20T00:18:21.900Z,947.51
2023-01-20T00:21:16.020Z,947.55
2023-01-20T00:21:48.917Z,947.54
2023-01-20T00:22:58.228Z,947.57
2023-01-20T00:23:58.270Z,947.57
2023-01-20T00:24:58.215Z,947.57
2023-01-20T00:25:58.228Z,947.59
2023-01-20T00:26:59.870Z,947.6
2023-01-20T00:28:01.865Z,947.64
2023-01-20T00:29:03.929Z,947.65
2023-01-20T00:30:05.880Z,947.63
2023-01-20T00:31:07.890Z,947.66
2023-01-20T00:32:09.870Z,947.71
2023-01-20T00:33:12.875Z,947.73
2023-01-20T00:34:15.909Z,947.77
2023-01-20T00:35:17.870Z,947.78
2023-01-20T00:37:26.534Z,947.8
2023-01-20T00:42:58.280Z,947.86
2023-01-20T00:43:58.270Z,947.9
2023-01-20T00:44:58.225Z,947.9
2023-01-20T00:45:58.234Z,947.93
2023-01-20T00:46:58.233Z,947.92
2023-01-20T00:47:58.244Z,947.94
2023-01-20T00:49:04.093Z,947.94
2023-01-20T00:49:58.242Z,947.96
2023-01-20T00:50:58.281Z,947.96
2023-01-20T00:51:58.237Z,947.95
2023-01-20T00:52:58.233Z,947.97
2023-01-20T00:53:59.400Z,947.97
2023-01-20T00:55:01.423Z,948.01
2023-01-20T00:57:06.473Z,948.06
2023-01-20T00:58:08.409Z,948.01
2023-01-20T00:59:10.393Z,948.07
2023-01-20T01:00:12.397Z,948.08
2023-01-20T01:07:18.883Z,948.15
2023-01-20T01:07:58.254Z,948.17
2023-01-20T01:08:58.240Z,948.17
2023-01-20T01:09:58.250Z,948.18
2023-01-20T01:10:58.245Z,948.2
2023-01-20T01:11:58.264Z,948.2
2023-01-20T01:12:58.276Z,948.22
2023-01-20T01:13:58.268Z,948.22
2023-01-20T01:14:58.250Z,948.26
2023-01-20T01:15:58.297Z,948.24
2023-01-20T01:16:58.249Z,948.27
2023-01-20T01:17:58.301Z,948.24
2023-01-20T01:18:58.252Z,948.26
2023-01-20T01:19:59.529Z,948.24
2023-01-20T01:21:01.559Z,948.27
2023-01-20T01:22:03.530Z,948.3
2023-01-20T01:23:05.564Z,948.3
2023-01-20T01:24:07.531Z,948.33
2023-01-20T01:25:09.584Z,948.3
2023-01-20T01:26:11.533Z,948.35
2023-01-20T01:27:13.524Z,948.32
2023-01-20T01:28:15.539Z,948.36
2023-01-20T01:29:17.526Z,948.35
2023-01-20T01:30:19.568Z,948.36
2023-01-20T01:31:21.611Z,948.37
2023-01-20T01:32:23.720Z,948.34
2023-01-20T01:33:25.533Z,948.37
2023-01-20T01:34:27.536Z,948.38
2023-01-20T01:35:29.545Z,948.4
2023-01-20T01:36:32.572Z,948.39
2023-01-20T01:37:34.591Z,948.37
2023-01-20T01:38:36.562Z,948.44
2023-01-20T01:39:38.529Z,948.43
2023-01-20T01:40:40.543Z,948.44
2023-01-20T01:41:42.545Z,948.45
2023-01-20T01:42:44.582Z,948.45
2023-01-20T01:43:46.554Z,948.47
2023-01-20T01:44:48.540Z,948.45
2023-01-20T01:45:50.637Z,948.46
2023-01-20T01:46:52.530Z,948.47
2023-01-20T01:47:54.632Z,948.48
2023-01-20T01:48:56.540Z,948.52
2023-01-20T01:49:58.799Z,948.48
2023-01-20T01:51:00.543Z,948.52
2023-01-20T01:52:16.085Z,948.51
2023-01-20T01:53:04.572Z,948.55
2023-01-20T01:54:06.567Z,948.54
2023-01-20T01:55:22.006Z,948.55
2023-01-20T01:56:10.758Z,948.54
2023-01-20T01:57:12.544Z,948.54
2023-01-20T01:58:14.592Z,948.55
2023-01-20T01:59:17.546Z,948.54
2023-01-20T02:00:19.553Z,948.55
2023-01-20T02:01:21.732Z,948.59
2023-01-20T02:02:24.178Z,948.59
2023-01-20T02:03:25.750Z,948.53
2023-01-20T02:04:40.007Z,948.56
2023-01-20T02:05:29.576Z,948.58
2023-01-20T02:06:32.534Z,948.57
2023-01-20T02:07:34.552Z,948.56
2023-01-20T02:08:36.586Z,948.59
2023-01-20T02:09:38.562Z,948.59
2023-01-20T02:10:40.598Z,948.6
2023-01-20T02:11:42.738Z,948.62
2023-01-20T02:12:44.554Z,948.62
2023-01-20T02:13:46.551Z,948.65
2023-01-20T02:14:48.578Z,948.62
2023-01-20T02:15:50.576Z,948.64
2023-01-20T02:16:52.600Z,948.66
2023-01-20T02:21:00.560Z,948.69
2023-01-20T02:24:07.089Z,948.74
2023-01-20T02:25:09.033Z,948.75
2023-01-20T02:26:11.027Z,948.76
2023-01-20T02:27:14.055Z,948.75
2023-01-20T02:28:16.029Z,948.77
2023-01-20T02:29:18.054Z,948.77
2023-01-20T02:30:20.088Z,948.8
2023-01-20T02:31:22.153Z,948.82
2023-01-20T02:32:24.021Z,948.83
2023-01-20T02:33:27.038Z,948.84
2023-01-20T02:34:29.027Z,948.86
2023-01-20T02:35:32.055Z,948.86
2023-01-20T02:36:35.044Z,948.88
2023-01-20T02:37:37.028Z,948.92
2023-01-20T02:38:39.041Z,948.93
2023-01-20T02:39:41.031Z,948.94
2023-01-20T02:40:44.036Z,948.94
2023-01-20T02:41:46.105Z,948.94
2023-01-20T02:42:48.034Z,948.93
2023-01-20T02:43:50.050Z,948.96
2023-01-20T02:44:52.053Z,948.95
2023-01-20T02:45:54.160Z,948.94
2023-01-20T02:46:56.065Z,948.91
2023-01-20T02:47:58.049Z,948.91
2023-01-20T02:49:00.038Z,948.94
2023-01-20T02:50:02.039Z,948.93
2023-01-20T02:51:04.062Z,948.92
2023-01-20T02:52:06.069Z,948.91
2023-01-20T02:53:09.053Z,948.92
2023-01-20T02:54:11.034Z,948.91
2023-01-20T02:55:13.351Z,948.89
2023-01-20T02:56:15.035Z,948.92
2023-01-20T02:57:17.119Z,948.93
2023-01-20T02:58:19.046Z,948.93
2023-01-20T02:59:21.045Z,948.94
2023-01-20T03:00:23.059Z,948.97
2023-01-20T03:01:25.264Z,948.95
2023-01-20T03:02:27.044Z,948.98
2023-01-20T03:03:29.132Z,948.97
2023-01-20T03:04:32.072Z,948.95
2023-01-20T03:05:35.063Z,948.95
2023-01-20T03:06:37.121Z,948.98
2023-01-20T03:07:39.059Z,948.95
2023-01-20T03:08:41.062Z,948.97
2023-01-20T03:09:43.046Z,948.96
2023-01-20T03:10:45.042Z,948.98
2023-01-20T03:11:47.067Z,949
2023-01-20T03:12:49.095Z,949.01
2023-01-20T03:13:51.054Z,949.02
2023-01-20T03:14:53.052Z,949
2023-01-20T03:15:55.068Z,949.03
2023-01-20T03:16:57.088Z,949.02
2023-01-20T03:17:59.069Z,949.01
2023-01-20T03:19:01.061Z,949.02
2023-01-20T03:20:03.062Z,949.02
2023-01-20T03:21:06.055Z,949.03
2023-01-20T03:22:08.053Z,949.03
2023-01-20T03:23:10.103Z,949.03
2023-01-20T03:24:12.061Z,949.01
2023-01-20T03:25:14.263Z,949.02
2023-01-20T03:26:17.069Z,949.01
2023-01-20T03:27:19.071Z,949.03
2023-01-20T03:28:21.087Z,949.06
2023-01-20T03:29:23.084Z,949.04
2023-01-20T03:30:26.097Z,949.07
2023-01-20T03:31:28.171Z,949.04
2023-01-20T03:32:30.055Z,949.06
2023-01-20T03:33:32.078Z,949.05
2023-01-20T03:34:35.266Z,949.05
2023-01-20T03:35:37.058Z,949.03
2023-01-20T03:36:39.065Z,949.01
2023-01-20T03:37:41.064Z,949.03
2023-01-20T03:38:43.064Z,949.04
2023-01-20T03:39:45.098Z,949.04
2023-01-20T03:40:47.056Z,949.05
2023-01-20T03:41:49.082Z,949.03
2023-01-20T03:42:51.078Z,949.03
2023-01-20T03:43:53.084Z,949.04
2023-01-20T03:44:55.081Z,949.06
2023-01-20T03:45:57.099Z,949.07
2023-01-20T03:46:59.073Z,949.07
2023-01-20T03:48:01.101Z,949.05
2023-01-20T03:49:03.060Z,949.03
2023-01-20T03:50:05.100Z,949
2023-01-20T03:51:07.093Z,949.03
2023-01-20T03:52:09.070Z,949.05
2023-01-20T03:53:11.093Z,949.01
2023-01-20T03:54:13.071Z,949.01
2023-01-20T03:55:15.453Z,949.03
2023-01-20T03:56:17.095Z,949.05
2023-01-20T04:00:58.434Z,949.03
2023-01-20T04:01:58.497Z,949.06
2023-01-20T04:02:58.350Z,949.05
2023-01-20T04:03:58.351Z,949.1
2023-01-20T04:04:58.374Z,949.11
2023-01-20T04:05:58.375Z,949.1
2023-01-20T04:06:58.359Z,949.12
2023-01-20T04:07:58.352Z,949.15
2023-01-20T04:08:58.356Z,949.17
2023-01-20T04:09:58.362Z,949.18
2023-01-20T04:10:58.354Z,949.18
2023-01-20T04:11:58.363Z,949.2
2023-01-20T04:12:58.367Z,949.25
2023-01-20T04:13:58.354Z,949.24
2023-01-20T04:14:58.361Z,949.28
2023-01-20T04:15:58.485Z,949.27
2023-01-20T04:16:59.146Z,949.32
2023-01-20T04:18:01.095Z,949.34
2023-01-20T04:19:04.104Z,949.34
2023-01-20T04:20:06.091Z,949.32
2023-01-20T04:21:08.108Z,949.31
2023-01-20T04:22:10.101Z,949.32
2023-01-20T04:23:12.154Z,949.31
2023-01-20T04:24:14.093Z,949.29
2023-01-20T04:25:16.563Z,949.33
2023-01-20T04:26:19.092Z,949.32
2023-01-20T04:27:21.093Z,949.3
2023-01-20T04:28:24.103Z,949.31
2023-01-20T04:29:26.105Z,949.3
2023-01-20T04:30:29.201Z,949.31
2023-01-20T04:31:32.183Z,949.32
2023-01-20T04:33:37.115Z,949.31
2023-01-20T04:34:39.098Z,949.33
2023-01-20T04:35:41.089Z,949.34
2023-01-20T04:36:43.104Z,949.35
2023-01-20T04:37:45.095Z,949.4
2023-01-20T04:38:47.120Z,949.41
2023-01-20T04:39:49.095Z,949.44
2023-01-20T04:40:51.099Z,949.47
2023-01-20T04:41:53.088Z,949.47
2023-01-20T04:42:55.147Z,949.48
2023-01-20T04:43:57.135Z,949.52
2023-01-20T04:45:00.121Z,949.53
2023-01-20T04:46:02.134Z,949.51
2023-01-20T04:47:04.115Z,949.54
2023-01-20T04:48:06.184Z,949.54
2023-01-20T04:49:08.111Z,949.52
2023-01-20T04:50:10.112Z,949.53
2023-01-20T04:51:12.105Z,949.5
2023-01-20T04:52:14.105Z,949.52
2023-01-20T04:53:16.144Z,949.53
2023-01-20T04:54:19.112Z,949.53
2023-01-20T04:55:21.114Z,949.53
2023-01-20T04:56:23.114Z,949.55
2023-01-20T04:57:26.109Z,949.54
2023-01-20T04:58:28.127Z,949.57
2023-01-20T04:59:30.124Z,949.58
2023-01-20T05:00:32.127Z,949.61
2023-01-20T05:01:36.263Z,949.63
2023-01-20T05:02:38.228Z,949.63
2023-01-20T05:03:40.117Z,949.69
2023-01-20T05:04:42.148Z,949.7
2023-01-20T05:05:44.115Z,949.7
2023-01-20T05:06:46.118Z,949.68
2023-01-20T05:07:48.115Z,949.7
2023-01-20T05:08:50.148Z,949.69
2023-01-20T05:09:52.130Z,949.7
2023-01-20T05:10:54.116Z,949.71
2023-01-20T05:11:57.111Z,949.69
2023-01-20T05:12:59.122Z,949.71
2023-01-20T05:14:01.150Z,949.72
2023-01-20T05:15:03.119Z,949.72
2023-01-20T05:16:05.127Z,949.74
2023-01-20T05:17:07.211Z,949.76
2023-01-20T05:18:09.122Z,949.76
2023-01-20T05:19:11.155Z,949.78
2023-01-20T05:20:14.141Z,949.8
2023-01-20T05:21:16.125Z,949.81
2023-01-20T05:22:19.128Z,949.89
2023-01-20T05:23:21.111Z,949.9
2023-01-20T05:24:23.170Z,949.93
2023-01-20T05:25:25.135Z,949.93
2023-01-20T05:26:27.112Z,949.93
2023-01-20T05:27:29.127Z,949.92
2023-01-20T05:28:32.161Z,949.95
2023-01-20T05:29:35.171Z,949.97
2023-01-20T05:30:37.178Z,950.03
2023-01-20T05:31:39.147Z,950
2023-01-20T05:32:41.140Z,950.02
2023-01-20T05:33:43.139Z,950.03
2023-01-20T05:34:46.126Z,950.03
2023-01-20T05:35:48.173Z,950.07
2023-01-20T05:36:50.127Z,950.07
2023-01-20T05:37:52.146Z,950.06
2023-01-20T05:38:54.124Z,950.07
2023-01-20T05:39:56.129Z,950.07
2023-01-20T05:40:58.157Z,950.07
2023-01-20T05:42:00.148Z,950.09
2023-01-20T05:43:02.143Z,950.13
2023-01-20T05:44:04.129Z,950.12
2023-01-20T05:45:06.151Z,950.13
2023-01-20T05:46:08.249Z,950.14
2023-01-20T05:47:10.154Z,950.13
2023-01-20T05:48:12.168Z,950.12
2023-01-20T05:49:14.188Z,950.16
2023-01-20T05:50:16.147Z,950.14
2023-01-20T05:51:18.170Z,950.14
2023-01-20T05:52:21.143Z,950.16
2023-01-20T05:53:23.150Z,950.13
2023-01-20T05:54:25.143Z,950.15
2023-01-20T05:55:27.161Z,950.18
2023-01-20T05:56:29.204Z,950.16
2023-01-20T05:57:32.172Z,950.2
2023-01-20T06:05:31.783Z,950.25
2023-01-20T06:06:33.780Z,950.25
2023-01-20T06:07:35.805Z,950.23
2023-01-20T06:08:37.794Z,950.24
2023-01-20T06:09:39.787Z,950.26
2023-01-20T06:10:41.834Z,950.26
2023-01-20T06:11:43.784Z,950.28
2023-01-20T06:12:45.840Z,950.29
2023-01-20T06:13:47.817Z,950.29
2023-01-20T06:14:49.793Z,950.28
2023-01-20T06:15:51.824Z,950.27
2023-01-20T06:16:53.785Z,950.29
2023-01-20T06:17:55.829Z,950.33
2023-01-20T06:18:57.833Z,950.31
2023-01-20T06:19:59.788Z,950.32
2023-01-20T06:32:24.478Z,950.29
2023-01-20T06:32:24.979Z,950.3
2023-01-20T06:32:58.445Z,950.37
2023-01-20T06:39:49.142Z,950.49
2023-01-20T06:59:37.210Z,950.5
2023-01-20T06:59:37.677Z,950.51
2023-01-20T07:01:22.837Z,950.73
2023-01-20T07:02:22.651Z,950.72
2023-01-20T07:03:23.189Z,950.73
2023-01-20T07:04:25.193Z,950.73
2023-01-20T07:05:27.181Z,950.74
2023-01-20T07:06:29.204Z,950.73
2023-01-20T07:07:31.193Z,950.77
2023-01-20T07:08:33.190Z,950.82
2023-01-20T07:09:35.197Z,950.83
2023-01-20T07:10:37.224Z,950.87
2023-01-20T07:11:41.218Z,950.9
2023-01-20T07:12:43.234Z,950.9
2023-01-20T07:13:45.194Z,950.9
2023-01-20T07:14:47.199Z,950.92
2023-01-20T07:15:49.181Z,950.94
2023-01-20T07:16:51.466Z,950.98
2023-01-20T07:17:53.214Z,950.98
2023-01-20T07:18:55.202Z,950.97
2023-01-20T07:19:57.372Z,950.96
2023-01-20T07:20:59.199Z,950.97
2023-01-20T07:22:01.239Z,951
2023-01-20T07:23:03.200Z,951.05
2023-01-20T07:24:05.203Z,951.05
2023-01-20T07:25:07.558Z,951.05
2023-01-20T07:26:09.187Z,951.06
2023-01-20T07:27:11.242Z,951.1
2023-01-20T07:28:13.202Z,951.09
2023-01-20T07:29:22.535Z,951.08
2023-01-20T07:30:22.588Z,951.12
2023-01-20T07:31:22.564Z,951.12
2023-01-20T07:32:22.587Z,951.14
2023-01-20T07:33:35.410Z,951.16
2023-01-20T08:02:20.687Z,951.36
2023-01-20T08:03:22.508Z,951.36
2023-01-20T08:04:24.564Z,951.37
2023-01-20T08:05:26.494Z,951.39
2023-01-20T08:06:28.497Z,951.4
2023-01-20T08:07:30.533Z,951.43
2023-01-20T08:08:32.494Z,951.43
2023-01-20T08:09:34.503Z,951.46
2023-01-20T08:10:36.551Z,951.48
2023-01-20T08:11:39.494Z,951.52
2023-01-20T08:12:41.525Z,951.53
2023-01-20T08:13:43.502Z,951.53
2023-01-20T08:14:45.508Z,951.57
2023-01-20T08:15:47.501Z,951.55
2023-01-20T08:16:49.569Z,951.6
2023-01-20T08:17:51.507Z,951.65
2023-01-20T08:18:53.521Z,951.67
2023-01-20T08:19:55.502Z,951.69
2023-01-20T08:20:58.557Z,951.71
2023-01-20T08:22:01.505Z,951.72
2023-01-20T08:23:03.504Z,951.75
2023-01-20T08:24:05.532Z,951.75
2023-01-20T08:25:13.952Z,951.75
2023-01-20T08:28:15.532Z,951.77
2023-01-20T08:29:17.491Z,951.77
2023-01-20T08:30:19.525Z,951.77
2023-01-20T08:31:21.652Z,951.77
2023-01-20T08:32:23.498Z,951.77
2023-01-20T08:33:25.527Z,951.8
2023-01-20T08:34:27.490Z,951.82
2023-01-20T08:35:29.478Z,951.82
2023-01-20T08:36:31.509Z,951.81
2023-01-20T08:37:33.509Z,951.82
2023-01-20T08:38:36.533Z,951.86
2023-01-20T08:39:39.495Z,951.86
2023-01-20T08:40:53.587Z,951.88
2023-01-20T09:26:34.963Z,952.38
2023-01-20T09:26:35.234Z,952.37
2023-01-20T09:27:26.924Z,952.38
2023-01-20T09:28:30.295Z,952.38
2023-01-20T09:29:30.920Z,952.41
2023-01-20T09:30:32.920Z,952.41
2023-01-20T09:31:35.059Z,952.39
2023-01-20T09:32:36.913Z,952.42
2023-01-20T09:33:38.951Z,952.43
2023-01-20T09:34:40.921Z,952.45
2023-01-20T09:35:42.921Z,952.46
2023-01-20T09:36:44.930Z,952.45
2023-01-20T09:37:46.989Z,952.45
2023-01-20T09:38:48.970Z,952.45
2023-01-20T09:39:50.921Z,952.43
2023-01-20T09:40:52.963Z,952.44
2023-01-20T09:41:54.939Z,952.45
2023-01-20T09:42:57.152Z,952.43
2023-01-20T09:43:58.950Z,952.43
2023-01-20T09:45:00.938Z,952.47
2023-01-20T09:46:02.981Z,952.45
2023-01-20T09:47:04.937Z,952.48
2023-01-20T09:48:06.985Z,952.49
2023-01-20T09:49:08.929Z,952.48
2023-01-20T09:50:10.946Z,952.48
2023-01-20T09:51:12.957Z,952.46
2023-01-20T09:52:14.936Z,952.48
2023-01-20T09:53:17.067Z,952.5
2023-01-20T09:54:18.933Z,952.5
2023-01-20T09:55:20.947Z,952.49
2023-01-20T09:56:22.991Z,952.51
2023-01-20T09:57:24.960Z,952.49
2023-01-20T09:58:28.944Z,952.5
2023-01-20T09:59:30.940Z,952.5
2023-01-20T10:00:32.936Z,952.51
2023-01-20T10:02:17.834Z,952.51
2023-01-20T10:03:17.794Z,952.48
2023-01-20T10:04:17.801Z,952.49
2023-01-20T10:05:17.867Z,952.49
2023-01-20T10:06:17.805Z,952.48
2023-01-20T10:07:17.799Z,952.47
2023-01-20T10:08:17.809Z,952.5
2023-01-20T10:09:23.585Z,952.48
2023-01-20T10:11:17.890Z,952.5
2023-01-20T10:12:17.815Z,952.49
2023-01-20T10:13:17.798Z,952.48
2023-01-20T10:14:17.811Z,952.48
2023-01-20T10:15:17.812Z,952.49
2023-01-20T10:16:17.901Z,952.49
2023-01-20T10:17:17.824Z,952.52
2023-01-20T10:18:17.821Z,952.5
2023-01-20T10:19:18.817Z,952.5
2023-01-20T10:20:17.821Z,952.51
2023-01-20T10:21:17.823Z,952.52
2023-01-20T10:22:17.832Z,952.51
2023-01-20T10:23:18.283Z,952.52
2023-01-20T10:24:20.280Z,952.54
2023-01-20T10:25:22.280Z,952.55
2023-01-20T10:26:24.350Z,952.54
2023-01-20T10:27:26.316Z,952.55
2023-01-20T10:28:29.323Z,952.57
2023-01-20T10:29:32.294Z,952.57
2023-01-20T10:30:34.309Z,952.59
2023-01-20T10:31:36.375Z,952.58
2023-01-20T10:32:38.290Z,952.57
2023-01-20T10:33:40.287Z,952.6
2023-01-20T10:34:42.292Z,952.55
2023-01-20T10:36:17.834Z,952.58
2023-01-20T10:37:17.826Z,952.55
2023-01-20T10:38:17.837Z,952.56
2023-01-20T10:39:17.821Z,952.57
2023-01-20T10:40:17.884Z,952.58
2023-01-20T10:41:19.553Z,952.6
2023-01-20T10:42:17.839Z,952.59
2023-01-20T10:43:17.838Z,952.57
2023-01-20T10:44:17.830Z,952.57
2023-01-20T10:45:18.071Z,952.58
2023-01-20T10:46:17.999Z,952.58
2023-01-20T10:47:17.847Z,952.54
2023-01-20T10:48:17.828Z,952.58
2023-01-20T10:49:17.826Z,952.54
2023-01-20T10:51:17.867Z,952.54
2023-01-20T10:53:19.078Z,952.55
2023-01-20T10:54:22.055Z,952.54
2023-01-20T10:55:24.054Z,952.53
2023-01-20T10:56:26.066Z,952.53
2023-01-20T10:57:29.118Z,952.51
2023-01-20T10:59:54.740Z,952.56
2023-01-20T11:01:19.454Z,952.54
2023-01-20T11:02:17.906Z,952.59
2023-01-20T11:03:17.967Z,952.57
2023-01-20T11:05:17.874Z,952.61
2023-01-20T11:06:17.842Z,952.58
2023-01-20T11:07:17.990Z,952.57
2023-01-20T11:08:17.848Z,952.58
2023-01-20T11:10:17.944Z,952.63
2023-01-20T11:11:17.899Z,952.6
2023-01-20T11:12:17.883Z,952.64
2023-01-20T11:13:17.943Z,952.65
2023-01-20T11:14:17.851Z,952.65
2023-01-20T11:15:17.862Z,952.66
2023-01-20T11:16:17.975Z,952.67
2023-01-20T11:17:17.852Z,952.62
2023-01-20T11:18:17.889Z,952.67
2023-01-20T11:19:17.851Z,952.63
2023-01-20T11:20:18.176Z,952.65
2023-01-20T11:21:19.360Z,952.67
2023-01-20T11:22:21.411Z,952.69
2023-01-20T11:23:23.356Z,952.73
2023-01-20T11:24:25.369Z,952.73
2023-01-20T11:25:29.389Z,952.74
2023-01-20T11:26:32.381Z,952.77
2023-01-20T11:28:36.417Z,952.78
2023-01-20T11:29:38.358Z,952.77
2023-01-20T11:30:40.387Z,952.79
2023-01-20T11:31:42.479Z,952.78
2023-01-20T11:32:44.364Z,952.77
2023-01-20T11:33:46.398Z,952.78
2023-01-20T11:34:48.365Z,952.77
2023-01-20T11:35:50.378Z,952.79
2023-01-20T11:36:52.378Z,952.81
2023-01-20T11:37:54.398Z,952.84
2023-01-20T11:38:56.375Z,952.83
2023-01-20T11:39:58.363Z,952.84
2023-01-20T11:41:00.372Z,952.82
2023-01-20T11:42:02.376Z,952.85
2023-01-20T11:43:04.412Z,952.84
2023-01-20T11:44:06.434Z,952.86
2023-01-20T11:45:20.680Z,952.86
2023-01-20T11:46:11.490Z,952.85
2023-01-20T11:47:13.364Z,952.86
2023-01-20T11:48:16.564Z,952.88
2023-01-20T11:49:18.379Z,952.86
2023-01-20T11:51:22.375Z,952.91
2023-01-20T11:52:24.368Z,952.91
2023-01-20T11:53:26.415Z,952.95
2023-01-20T11:54:29.414Z,952.92
2023-01-20T11:55:32.385Z,952.93
2023-01-20T11:56:34.387Z,952.93
2023-01-20T11:57:36.432Z,952.91
2023-01-20T11:58:38.405Z,952.9
2023-01-20T11:59:40.390Z,952.96
2023-01-20T12:00:42.397Z,952.92
2023-01-20T12:01:44.429Z,952.94
2023-01-20T12:02:46.381Z,952.93
2023-01-20T12:03:48.520Z,952.95
2023-01-20T12:04:50.426Z,952.95
2023-01-20T12:05:54.754Z,952.99
2023-01-20T12:06:54.378Z,952.98
2023-01-20T12:07:56.391Z,952.97
2023-01-20T12:08:58.414Z,953.01
2023-01-20T12:10:00.424Z,953.03
2023-01-20T12:11:02.379Z,953.02
2023-01-20T12:12:05.399Z,953.04
2023-01-20T12:14:09.443Z,953.03
2023-01-20T12:15:11.420Z,953.04
2023-01-20T12:16:13.468Z,953.08
2023-01-20T12:17:15.450Z,953.07
2023-01-20T12:18:17.382Z,953.07
2023-01-20T12:19:29.523Z,953.07
2023-01-20T12:20:21.394Z,953.03
2023-01-20T12:21:24.503Z,953.04
2023-01-20T12:22:26.555Z,953.04
2023-01-20T12:23:29.428Z,953.06
2023-01-20T12:24:42.564Z,953.06
2023-01-20T12:25:34.391Z,953.09
2023-01-20T12:26:36.407Z,953.08
2023-01-20T12:27:39.405Z,953.11
2023-01-20T12:28:41.451Z,953.11
2023-01-20T12:29:43.392Z,953.1
2023-01-20T12:30:45.479Z,953.11
2023-01-20T12:31:47.453Z,953.13
2023-01-20T12:32:49.402Z,953.13
2023-01-20T12:33:51.433Z,953.15
2023-01-20T12:34:54.410Z,953.15
2023-01-20T12:35:56.393Z,953.15
2023-01-20T12:36:58.410Z,953.17
2023-01-20T12:38:00.398Z,953.18
2023-01-20T12:39:02.400Z,953.2
2023-01-20T12:40:04.407Z,953.18
2023-01-20T12:41:06.416Z,953.24
2023-01-20T12:42:08.441Z,953.24
2023-01-20T12:43:10.447Z,953.24
2023-01-20T12:44:12.405Z,953.27
2023-01-20T12:45:15.417Z,953.26
2023-01-20T12:46:17.481Z,953.21
2023-01-20T12:47:19.436Z,953.24
2023-01-20T12:48:21.427Z,953.32
2023-01-20T12:49:23.406Z,953.29
2023-01-20T12:50:25.458Z,953.33
2023-01-20T12:51:27.417Z,953.38
2023-01-20T12:52:29.530Z,953.38
2023-01-20T12:53:32.405Z,953.39
2023-01-20T12:54:47.371Z,953.39
2023-01-20T12:55:36.413Z,953.41
2023-01-20T12:56:38.419Z,953.4
2023-01-20T12:57:40.457Z,953.43
2023-01-20T12:58:42.516Z,953.44
2023-01-20T12:59:44.418Z,953.43
2023-01-20T13:00:46.470Z,953.44
2023-01-20T13:01:48.422Z,953.47
2023-01-20T13:02:50.540Z,953.48
2023-01-20T13:03:52.420Z,953.42
2023-01-20T13:04:54.425Z,953.43
2023-01-20T13:05:56.423Z,953.46
2023-01-20T13:06:58.421Z,953.45
2023-01-20T13:08:00.451Z,953.48
2023-01-20T13:09:02.425Z,953.49
2023-01-20T13:10:04.473Z,953.48
2023-01-20T13:11:06.415Z,953.48
2023-01-20T13:12:08.425Z,953.5
2023-01-20T13:13:10.429Z,953.53
2023-01-20T13:14:12.442Z,953.54
2023-01-20T13:15:14.453Z,953.52
2023-01-20T13:16:16.442Z,953.51
2023-01-20T13:17:18.437Z,953.54
2023-01-20T13:18:20.423Z,953.5
2023-01-20T13:19:22.419Z,953.51
2023-01-20T13:20:24.438Z,953.53
2023-01-20T13:21:26.425Z,953.53
2023-01-20T13:22:29.488Z,953.52
2023-01-20T13:23:32.411Z,953.48
2023-01-20T13:24:34.432Z,953.53
2023-01-20T13:25:37.444Z,953.54
2023-01-20T13:26:39.433Z,953.56
2023-01-20T13:27:41.566Z,953.55
2023-01-20T13:28:43.430Z,953.52
2023-01-20T13:29:45.443Z,953.54
2023-01-20T13:30:47.603Z,953.53
2023-01-20T13:31:49.609Z,953.54
2023-01-20T13:32:51.461Z,953.54
2023-01-20T13:33:53.424Z,953.57
2023-01-20T13:34:55.449Z,953.6
2023-01-20T13:35:57.527Z,953.62
2023-01-20T13:36:59.474Z,953.61
2023-01-20T13:38:01.535Z,953.61
2023-01-20T13:39:04.469Z,953.62
2023-01-20T13:40:06.449Z,953.63
2023-01-20T13:41:08.446Z,953.63
2023-01-20T13:42:10.437Z,953.66
2023-01-20T13:43:12.470Z,953.66
2023-01-20T13:44:14.519Z,953.69
2023-01-20T13:45:16.622Z,953.69
2023-01-20T13:46:18.483Z,953.69
2023-01-20T13:47:20.470Z,953.72
2023-01-20T13:48:22.459Z,953.73
2023-01-20T13:49:24.503Z,953.71
2023-01-20T13:50:26.446Z,953.75
2023-01-20T13:51:29.505Z,953.75
2023-01-20T13:52:32.503Z,953.78
2023-01-20T13:53:34.436Z,953.77
2023-01-20T13:54:36.495Z,953.79
2023-01-20T13:55:38.457Z,953.78
2023-01-20T13:57:17.952Z,953.81
2023-01-20T13:58:17.944Z,953.81
2023-01-20T13:59:17.955Z,953.84
2023-01-20T14:00:18.023Z,953.81
2023-01-20T14:01:18.051Z,953.8
2023-01-20T14:02:17.984Z,953.83
2023-01-20T14:03:17.947Z,953.88
2023-01-20T14:04:18.254Z,953.86
2023-01-20T14:05:20.234Z,953.88
2023-01-20T14:06:22.213Z,953.86
2023-01-20T14:07:24.234Z,953.88
2023-01-20T14:09:29.235Z,953.9
2023-01-20T14:10:33.218Z,953.87
2023-01-20T14:11:35.229Z,953.91
2023-01-20T14:12:37.226Z,953.85
2023-01-20T14:13:39.219Z,953.92
2023-01-20T14:14:41.270Z,953.91
2023-01-20T14:15:43.386Z,953.91
2023-01-20T14:16:45.268Z,953.91
2023-01-20T14:17:47.234Z,953.92
2023-01-20T14:18:49.222Z,953.91
2023-01-20T14:19:51.234Z,953.91
2023-01-20T14:20:53.229Z,953.93
2023-01-20T14:21:55.242Z,953.94
2023-01-20T14:22:57.232Z,953.95
2023-01-20T14:24:11.771Z,953.96
2023-01-20T14:25:01.246Z,953.98
2023-01-20T14:26:03.242Z,953.99
2023-01-20T14:27:05.229Z,954.03
2023-01-20T14:28:07.237Z,954.05
2023-01-20T14:29:09.244Z,954.04
2023-01-20T14:30:11.230Z,954.06
2023-01-20T14:31:13.459Z,954.08
2023-01-20T14:32:15.227Z,954.07
2023-01-20T14:33:17.234Z,954.11
2023-01-20T14:34:19.252Z,954.1
2023-01-20T14:35:21.239Z,954.12
2023-01-20T14:36:23.274Z,954.18
2023-01-20T14:37:25.238Z,954.2
2023-01-20T14:39:47.983Z,954.19
2023-01-20T14:41:48.206Z,954.24
2023-01-20T14:42:50.206Z,954.27
2023-01-20T14:43:52.228Z,954.3
2023-01-20T14:44:54.195Z,954.3
2023-01-20T14:45:56.262Z,954.33
2023-01-20T14:47:11.825Z,954.32
2023-01-20T14:48:00.263Z,954.33
2023-01-20T14:49:02.203Z,954.32
2023-01-20T14:50:04.249Z,954.35
2023-01-20T14:51:06.218Z,954.37
2023-01-20T14:52:08.232Z,954.41
2023-01-20T14:53:10.340Z,954.42
2023-01-20T14:54:12.200Z,954.41
2023-01-20T14:55:14.224Z,954.42
2023-01-20T14:56:17.200Z,954.44
2023-01-20T14:57:19.213Z,954.45
2023-01-20T14:58:21.420Z,954.46
2023-01-20T14:59:23.212Z,954.5
2023-01-20T15:00:25.211Z,954.48
2023-01-20T15:02:31.426Z,954.53
2023-01-20T15:03:33.451Z,954.54
2023-01-20T15:04:36.343Z,954.56
2023-01-20T15:05:39.375Z,954.63
2023-01-20T15:06:42.342Z,954.6
2023-01-20T15:07:44.348Z,954.65
2023-01-20T15:08:56.755Z,954.65
2023-01-20T15:09:48.336Z,954.68
2023-01-20T15:10:50.344Z,954.69
2023-01-20T15:11:52.342Z,954.72
2023-01-20T15:12:54.344Z,954.71
2023-01-20T15:13:57.817Z,954.76
2023-01-20T15:14:58.347Z,954.72
2023-01-20T15:16:00.391Z,954.74
2023-01-20T15:17:02.397Z,954.72
2023-01-20T15:18:04.366Z,954.75
2023-01-20T15:19:06.466Z,954.77
2023-01-20T15:20:08.402Z,954.75
2023-01-20T15:21:16.927Z,954.75
2023-01-20T15:22:12.373Z,954.77
2023-01-20T15:23:14.359Z,954.79
2023-01-20T15:24:17.991Z,954.78
2023-01-20T15:25:18.502Z,954.81
2023-01-20T15:26:21.355Z,954.8
2023-01-20T15:27:23.394Z,954.83
2023-01-20T15:28:25.414Z,954.8